Vance Air Force Base
KEND : now visible

Airfield :











YOU CAN JOIN US ON...

 
LOGIN :

Register | Disclaimer

   EN    FR    IT 

 









Legend :    VFR   Marginal VFR   IFR   Intensive IFR   Very Intensive IFR
Visi :
Ceiling :
>= 8 km
>= 3000ft
5 to 8 km
1000 to 3000 ft
1500m to 5 km
500 to 1000 ft
800 to 1500m
200 to 500 ft
< 800m
< 200 ft
Symbols :   Thunderstorms  Fog  Heavy snow  Heavy precipitations  Wind > 20 kt






- Airport Elevation : 1307 ft


KEND - Vance Air Force Base

CURRENT METAR :
  • 042256Z AUTO 28005KT 10SM CLR 08/01 A3016 RMK AO2 SLP224 T00840009 $

EXPIRED METARs :
  • 042156Z AUTO 25006KT 10SM CLR 11/M02 A3015 RMK AO2 SLP220 T01111020 $
  • 042056Z AUTO 26006KT 10SM CLR 11/M02 A3014 RMK AO2 SLP215 T01081019 57013 $

TAF TAF KEND
Valid from the 04 at 18:00 until the 06 at 00:00 UTC


041800Z 0418/0524 28009KT 9999 FEW030 QNH3016INS
BECMG 0511/0512 33009KT 9999 SKC QNH3015INS
BECMG 0517/0518 36009KT 9999 SKC QNH3020INS TX09/0421Z TN00/0509Z
KZKC FIR / North America



MET'MAP, your aeronautical weather chart ! - Copyright ORBIFLY December 2007 - Disclaimer

ORBIFLY MET'MAP TEAM :

Programming & Development : Alexandra Zaïnal
Concept & original design : Baudouin d'Aumeries
Assistance for programming : Marc-Olivier Méhu
Technical & hardware support : Manuel Goepfert

Contact : metmap@orbifly.com




SOURCES & CREDITS :

   NOAA       Earth
Advisory